RJOI/IWA METAR and TAF weather

Enter ICAO airport designator
Station Type Date Time Source
RJOI METAR 2020/09/22 19:55 UTC NOAA

RJOI 221955Z 02014KT 9999 FEW025 FEW230 22/15 A2991 RMK SLP127 T02170150


Station Type Date Time Source
RJOI Decoded METAR 2020/09/22 19:55 UTC NOAA

MCAS IWAKUNI,JAPAN, JA, Japan (RJOI) 34-09N 132-14E 5M
Sep 22, 2020 - 03:55 PM EDT / 2020.09.22 1955 UTC
Wind: from the NNE (020 degrees) at 16 MPH (14 KT):0
Visibility: greater than 7 mile(s):0
Sky conditions: mostly clear
Temperature: 71.1 F (21.7 C)
Dew Point: 59.0 F (15.0 C)
Relative Humidity: 65%
Pressure (altimeter): 29.91 in. Hg (1012 hPa)
ob: RJOI 221955Z 02014KT 9999 FEW025 FEW230 22/15 A2991 RMK SLP127 T02170150
cycle: 20

Station Type Date Time Source
RJOI TAF 2020/09/22 13:58 UTC NOAA

TAF RJOI 2213/2313 03010KT 9999 FEW030 SCT150 SCT200 510705 QNH2985INS
FM230100 05010G16KT 9999 SCT030 SCT120 BKN200 510905 QNH2979INS
FM230600 09008KT 9999 FEW030 SCT050 BKN120 510905 QNH2979INS
BECMG 2308/2309 06008KT 9999 SCT030 BKN050 BKN120 510905 QNH2980INS
TEMPO 2310/2313 06014G23KT 9999 BKN030 T21/2220Z T27/2303Z

Example: see airport list